Time;durP1;ratioP1;P1;durP2;ratioP2;P2;SDS_P1;SDS_P2;PMS_P1;PMS_P2;Temp;Humidity;BMP_temperature;BMP_pressure;BME280_temperature;BME280_humidity;BME280_pressure;Samples;Min_cycle;Max_cycle;Signal;HPM_P1;HPM_P2
2023/07/13 00:01:18;;;;;;;2.53;1.20;;;21.30;56.60;;;;;;5116139;27;20054;-64
2023/07/13 00:03:45;;;;;;;3.53;1.27;;;21.20;56.80;;;;;;5119981;27;20059;-64
2023/07/13 00:06:12;;;;;;;2.60;1.10;;;21.20;57.10;;;;;;5113575;27;20051;-61
2023/07/13 00:08:39;;;;;;;2.42;1.00;;;21.10;57.40;;;;;;5119367;27;20053;-62
2023/07/13 00:11:06;;;;;;;2.38;1.13;;;21.10;57.50;;;;;;5120099;27;20046;-69
2023/07/13 00:13:34;;;;;;;2.33;1.13;;;21.20;57.50;;;;;;5115616;27;20518;-69
2023/07/13 00:16:01;;;;;;;1.98;0.98;;;21.10;57.50;;;;;;5116046;27;20076;-69
2023/07/13 00:18:29;;;;;;;2.60;1.10;;;20.90;57.80;;;;;;5112049;27;20047;-66
2023/07/13 00:21:05;;;;;;;2.72;1.20;;;20.90;57.90;;;;;;5082840;27;20047;-68
2023/07/13 00:23:33;;;;;;;2.33;1.00;;;20.90;57.90;;;;;;5113026;27;20487;-69
2023/07/13 00:26:00;;;;;;;1.55;0.90;;;20.90;58.00;;;;;;5113693;27;20134;-74
2023/07/13 00:28:27;;;;;;;2.15;1.00;;;20.90;58.00;;;;;;5118681;27;20374;-75
2023/07/13 00:30:56;;;;;;;3.45;1.10;;;20.80;58.40;;;;;;5119009;27;20050;-67
2023/07/13 00:33:22;;;;;;;2.42;1.00;;;20.80;58.50;;;;;;5112237;27;20044;-66
2023/07/13 00:35:50;;;;;;;3.30;1.10;;;20.80;58.30;;;;;;5100629;27;20062;-71
2023/07/13 00:38:17;;;;;;;3.13;0.90;;;20.80;58.30;;;;;;5115431;27;20039;-71
2023/07/13 00:40:44;;;;;;;2.35;1.10;;;20.70;58.60;;;;;;5106191;27;20047;-74
2023/07/13 00:43:18;;;;;;;2.70;1.35;;;20.60;58.90;;;;;;5118417;27;21030;-75
2023/07/13 00:46:12;;;;;;;2.25;1.00;;;20.50;59.30;;;;;;5115780;27;20478;-69
2023/07/13 00:48:39;;;;;;;2.42;1.00;;;20.40;59.50;;;;;;5114019;27;20491;-68
2023/07/13 00:51:07;;;;;;;2.15;1.00;;;20.40;59.50;;;;;;5118334;27;20058;-68
2023/07/13 00:53:35;;;;;;;4.75;1.20;;;20.30;59.70;;;;;;5094560;27;20094;-68
2023/07/13 00:56:03;;;;;;;1.42;0.80;;;20.30;59.90;;;;;;5116920;27;20092;-60
2023/07/13 00:58:30;;;;;;;3.17;1.13;;;20.30;59.90;;;;;;5117729;27;20066;-61
2023/07/13 01:00:58;;;;;;;2.85;1.27;;;20.30;59.90;;;;;;5089960;27;20040;-62
2023/07/13 01:03:26;;;;;;;3.10;1.05;;;20.20;60.10;;;;;;5112385;27;20092;-62
2023/07/13 01:05:54;;;;;;;1.90;0.90;;;20.10;60.40;;;;;;5094724;27;20043;-63
2023/07/13 01:08:22;;;;;;;3.45;1.10;;;20.10;60.60;;;;;;5097338;27;20059;-64
2023/07/13 01:10:53;;;;;;;2.65;1.00;;;20.10;60.50;;;;;;5110648;27;20047;-67
2023/07/13 01:13:20;;;;;;;2.65;0.82;;;20.10;60.60;;;;;;5113319;27;20047;-68
2023/07/13 01:15:51;;;;;;;1.40;0.80;;;20.10;60.70;;;;;;5114011;27;20048;-63
2023/07/13 01:18:28;;;;;;;2.33;0.93;;;20.00;60.90;;;;;;5116610;27;20043;-63
2023/07/13 01:20:59;;;;;;;3.72;1.02;;;19.90;61.00;;;;;;5118032;27;20059;-61
2023/07/13 01:23:28;;;;;;;2.38;1.15;;;20.00;61.00;;;;;;5115770;27;20062;-61
2023/07/13 01:26:05;;;;;;;2.03;0.80;;;19.90;61.10;;;;;;5066946;27;20789;-74
2023/07/13 01:28:40;;;;;;;3.13;1.30;;;20.00;61.10;;;;;;4896265;28;20048;-74
2023/07/13 01:31:14;;;;;;;3.25;1.05;;;19.90;61.20;;;;;;4899494;28;21498;-69
2023/07/13 01:34:04;;;;;;;4.20;1.10;;;19.80;61.30;;;;;;4889811;28;21470;-69
2023/07/13 01:43:11;;;;;;;3.92;1.00;;;19.60;61.80;;;;;;4869260;28;20090;-63
2023/07/13 01:48:59;;;;;;;4.65;1.27;;;19.60;61.80;;;;;;4923126;28;20043;-69
2023/07/13 01:51:26;;;;;;;3.60;1.33;;;19.50;62.20;;;;;;5034548;27;20048;-70
2023/07/13 01:53:54;;;;;;;1.67;0.85;;;19.40;62.30;;;;;;5113964;27;20058;-70
2023/07/13 01:56:21;;;;;;;7.72;1.08;;;19.40;62.50;;;;;;5109520;27;20505;-69
2023/07/13 01:58:48;;;;;;;2.28;1.20;;;19.40;62.40;;;;;;5116983;27;20079;-70
2023/07/13 02:01:15;;;;;;;3.30;1.13;;;19.30;62.60;;;;;;5116161;27;20051;-70
2023/07/13 02:03:42;;;;;;;2.25;0.98;;;19.30;62.80;;;;;;5102055;27;20398;-69
2023/07/13 02:06:09;;;;;;;5.38;1.10;;;19.30;62.90;;;;;;5115363;27;20505;-69
2023/07/13 02:08:36;;;;;;;2.88;1.05;;;19.30;63.00;;;;;;5117987;27;20040;-70
2023/07/13 02:11:05;;;;;;;2.70;1.10;;;19.20;63.20;;;;;;5114958;27;20048;-69
2023/07/13 02:13:32;;;;;;;2.83;1.20;;;19.30;63.10;;;;;;5114053;27;20493;-70
2023/07/13 02:15:59;;;;;;;3.00;1.20;;;19.20;63.20;;;;;;5112610;27;20051;-69
2023/07/13 02:18:26;;;;;;;2.45;1.15;;;19.10;63.60;;;;;;5115521;27;20591;-70
2023/07/13 02:20:52;;;;;;;2.25;1.00;;;19.10;63.70;;;;;;5116736;27;20059;-69
2023/07/13 02:23:19;;;;;;;2.80;1.15;;;19.10;63.80;;;;;;5115549;27;20036;-70
2023/07/13 02:25:47;;;;;;;2.97;1.13;;;19.10;63.80;;;;;;5113927;28;20086;-63
2023/07/13 02:28:17;;;;;;;2.72;1.00;;;19.00;63.80;;;;;;5096192;27;20053;-61
2023/07/13 02:30:44;;;;;;;2.67;1.05;;;18.90;64.10;;;;;;5116992;27;20081;-74
2023/07/13 02:33:11;;;;;;;2.58;1.10;;;19.00;63.80;;;;;;5114609;27;20070;-74
2023/07/13 02:35:38;;;;;;;4.78;1.10;;;19.00;64.00;;;;;;5112275;27;20055;-70
2023/07/13 02:38:05;;;;;;;2.60;1.25;;;18.90;63.90;;;;;;5118872;27;20850;-70
2023/07/13 02:40:33;;;;;;;3.15;1.17;;;18.80;64.00;;;;;;5116907;28;20050;-69
2023/07/13 02:43:00;;;;;;;2.40;1.15;;;18.80;64.20;;;;;;5112625;28;20217;-70
2023/07/13 02:45:28;;;;;;;3.13;1.17;;;18.80;64.00;;;;;;5113368;28;20047;-70
2023/07/13 02:47:56;;;;;;;2.97;1.02;;;18.70;64.10;;;;;;5093111;28;20043;-70
2023/07/13 02:50:23;;;;;;;2.97;1.20;;;18.70;64.30;;;;;;5113456;28;20134;-63
2023/07/13 02:52:50;;;;;;;4.10;1.13;;;18.70;64.30;;;;;;5113071;28;20043;-64
2023/07/13 02:55:17;;;;;;;2.85;1.25;;;18.70;64.40;;;;;;5113335;28;20089;-62
2023/07/13 02:57:44;;;;;;;3.47;1.10;;;18.60;64.70;;;;;;5111870;28;20055;-64
2023/07/13 03:00:12;;;;;;;3.10;1.20;;;18.60;64.80;;;;;;5104438;28;20062;-62
2023/07/13 03:02:40;;;;;;;3.25;1.27;;;18.60;64.90;;;;;;5111519;28;20054;-75
2023/07/13 03:05:07;;;;;;;3.92;1.30;;;18.70;64.90;;;;;;5109786;28;20140;-72
2023/07/13 03:07:35;;;;;;;2.45;1.10;;;18.60;65.10;;;;;;5099952;28;20432;-72
2023/07/13 03:10:01;;;;;;;3.55;1.35;;;18.60;65.20;;;;;;5117853;28;20713;-72
2023/07/13 03:12:38;;;;;;;3.30;1.40;;;18.60;65.30;;;;;;5088954;28;20470;-71
2023/07/13 03:15:11;;;;;;;1.60;0.93;;;18.60;65.60;;;;;;5097763;28;20055;-71
2023/07/13 03:17:41;;;;;;;4.88;1.02;;;18.60;65.60;;;;;;5096495;28;20126;-71
2023/07/13 03:20:10;;;;;;;3.63;1.48;;;18.60;65.60;;;;;;5091850;28;20052;-71
2023/07/13 03:22:37;;;;;;;4.68;1.45;;;18.60;65.80;;;;;;5092751;28;20035;-73
2023/07/13 03:25:04;;;;;;;2.92;1.50;;;18.60;66.00;;;;;;5106909;28;20061;-73
2023/07/13 03:27:31;;;;;;;4.28;1.50;;;18.70;65.90;;;;;;5097461;28;20126;-74
2023/07/13 03:29:58;;;;;;;3.30;1.52;;;18.60;66.20;;;;;;5096589;28;20490;-74
2023/07/13 03:32:25;;;;;;;3.97;1.60;;;18.60;66.30;;;;;;5111923;28;20069;-70
2023/07/13 03:34:53;;;;;;;3.67;1.73;;;18.60;66.20;;;;;;5112031;27;20048;-68
2023/07/13 03:37:20;;;;;;;3.67;1.45;;;18.60;66.20;;;;;;5102052;27;20038;-69
2023/07/13 03:39:48;;;;;;;6.63;1.45;;;18.60;66.00;;;;;;5115716;27;20048;-71
2023/07/13 03:42:15;;;;;;;4.07;1.73;;;18.60;65.90;;;;;;5097177;27;20070;-68
2023/07/13 03:44:45;;;;;;;3.05;1.23;;;18.60;65.90;;;;;;5117664;27;20052;-68
2023/07/13 03:47:13;;;;;;;3.25;1.60;;;18.60;65.60;;;;;;5091264;27;20060;-70
2023/07/13 03:49:39;;;;;;;2.80;1.27;;;18.60;65.60;;;;;;5114802;27;20121;-70
2023/07/13 03:52:08;;;;;;;3.00;1.38;;;18.50;65.60;;;;;;5095613;27;20105;-69
2023/07/13 03:54:35;;;;;;;4.60;1.40;;;18.40;65.80;;;;;;5097176;27;20135;-69
2023/07/13 03:57:03;;;;;;;3.15;1.30;;;18.30;65.70;;;;;;5096965;27;20054;-61
2023/07/13 03:59:33;;;;;;;2.97;1.20;;;18.50;65.40;;;;;;5091121;27;20051;-61
2023/07/13 04:02:00;;;;;;;4.18;1.30;;;18.40;65.20;;;;;;5115182;27;20055;-71
2023/07/13 04:04:27;;;;;;;3.08;1.50;;;18.40;65.20;;;;;;5094111;27;20047;-72
2023/07/13 04:06:54;;;;;;;3.58;1.35;;;18.30;65.30;;;;;;5097927;27;20071;-76
2023/07/13 04:09:23;;;;;;;4.57;1.48;;;18.30;65.50;;;;;;5115356;27;20547;-76
2023/07/13 04:11:49;;;;;;;2.70;1.17;;;18.40;65.50;;;;;;5118012;27;20089;-68
2023/07/13 04:14:16;;;;;;;4.57;1.63;;;18.30;65.40;;;;;;5097484;27;20044;-68
2023/07/13 04:16:44;;;;;;;3.63;1.33;;;18.40;65.50;;;;;;5114938;27;21307;-68
2023/07/13 04:19:11;;;;;;;4.93;1.40;;;18.30;65.50;;;;;;5111379;27;20071;-69
2023/07/13 04:21:38;;;;;;;3.47;1.30;;;18.30;65.60;;;;;;5114571;27;20062;-61
2023/07/13 04:24:05;;;;;;;4.68;1.38;;;18.30;65.60;;;;;;5111467;27;20040;-62
2023/07/13 04:26:35;;;;;;;4.53;1.50;;;18.30;65.60;;;;;;5112724;27;20051;-63
2023/07/13 04:29:03;;;;;;;7.10;1.80;;;18.30;65.80;;;;;;5118871;27;20490;-64
2023/07/13 04:31:30;;;;;;;4.10;1.40;;;18.30;65.80;;;;;;5117540;27;20055;-61
2023/07/13 04:33:57;;;;;;;4.10;1.45;;;18.30;65.70;;;;;;5115976;27;20044;-60
2023/07/13 04:36:26;;;;;;;3.90;1.50;;;18.20;65.90;;;;;;5116425;27;20048;-73
2023/07/13 04:38:54;;;;;;;3.50;1.48;;;18.20;66.00;;;;;;5118552;27;20471;-70
2023/07/13 04:41:22;;;;;;;2.35;1.30;;;18.20;66.00;;;;;;5116547;27;20051;-72
2023/07/13 04:43:50;;;;;;;3.28;1.33;;;18.20;66.00;;;;;;5118127;27;20135;-72
2023/07/13 04:46:18;;;;;;;2.15;1.05;;;18.20;65.80;;;;;;5107113;27;20045;-71
2023/07/13 04:48:45;;;;;;;5.20;1.35;;;18.10;65.70;;;;;;5117209;27;20052;-71
2023/07/13 04:51:12;;;;;;;4.00;0.90;;;18.00;66.20;;;;;;5113806;27;20227;-71
2023/07/13 04:53:39;;;;;;;3.83;1.23;;;18.00;66.30;;;;;;5117743;27;20047;-71
2023/07/13 04:56:06;;;;;;;3.28;1.30;;;18.00;66.20;;;;;;5118667;27;20047;-64
2023/07/13 04:58:33;;;;;;;3.30;1.30;;;18.10;65.90;;;;;;5115142;27;20070;-64
2023/07/13 05:01:03;;;;;;;4.60;1.30;;;18.20;65.80;;;;;;5116461;27;20047;-71
2023/07/13 05:03:30;;;;;;;3.88;1.30;;;18.30;65.70;;;;;;5110122;27;20051;-71
2023/07/13 05:05:58;;;;;;;4.55;1.20;;;18.20;65.90;;;;;;5113609;27;20602;-70
2023/07/13 05:08:25;;;;;;;3.38;1.33;;;18.30;65.90;;;;;;5116012;27;20090;-68
2023/07/13 05:10:52;;;;;;;4.28;1.50;;;18.30;66.10;;;;;;5114794;27;20071;-60
2023/07/13 05:13:19;;;;;;;4.60;1.50;;;18.30;66.10;;;;;;5116027;27;20080;-62
2023/07/13 05:15:48;;;;;;;4.35;1.40;;;18.30;66.30;;;;;;5110921;27;20435;-64
2023/07/13 05:18:16;;;;;;;3.17;1.23;;;18.30;66.20;;;;;;5113676;27;20047;-64
2023/07/13 05:20:43;;;;;;;4.15;1.10;;;18.30;66.00;;;;;;5116503;27;20043;-60
2023/07/13 05:23:10;;;;;;;4.25;1.60;;;18.40;65.90;;;;;;5114172;27;20055;-62
2023/07/13 05:25:37;;;;;;;4.18;1.50;;;18.50;65.80;;;;;;5118586;27;20102;-62
2023/07/13 05:28:04;;;;;;;5.75;1.52;;;18.50;65.90;;;;;;5115045;27;20058;-61
2023/07/13 05:30:31;;;;;;;4.63;1.92;;;18.60;65.90;;;;;;5115768;27;20613;-62
2023/07/13 05:32:58;;;;;;;4.60;1.95;;;18.60;66.00;;;;;;5111194;27;20058;-60
2023/07/13 05:35:26;;;;;;;3.55;1.90;;;18.60;66.20;;;;;;5113360;27;20043;-60
2023/07/13 05:37:53;;;;;;;4.53;1.70;;;18.60;66.30;;;;;;5114500;27;20046;-59
2023/07/13 05:40:20;;;;;;;5.47;2.15;;;18.60;66.70;;;;;;5114094;27;20051;-62
2023/07/13 05:42:47;;;;;;;6.82;1.95;;;18.50;66.80;;;;;;5113090;27;20087;-60
2023/07/13 05:45:14;;;;;;;5.07;1.98;;;18.60;66.40;;;;;;5111837;27;20047;-62
2023/07/13 05:47:41;;;;;;;6.15;2.08;;;18.60;66.20;;;;;;5117628;27;20043;-60
2023/07/13 05:50:08;;;;;;;5.07;2.28;;;18.70;66.10;;;;;;5109803;27;20044;-62
2023/07/13 05:52:37;;;;;;;5.35;1.70;;;18.70;66.00;;;;;;5115368;27;20493;-70
2023/07/13 05:55:04;;;;;;;5.82;1.80;;;18.80;66.00;;;;;;5117138;27;20047;-71
2023/07/13 05:57:32;;;;;;;5.03;2.03;;;18.80;65.80;;;;;;5112032;27;20039;-69
2023/07/13 05:59:58;;;;;;;4.30;1.88;;;18.90;65.90;;;;;;5111059;27;20047;-68
2023/07/13 06:02:26;;;;;;;5.05;1.67;;;18.90;65.80;;;;;;5113076;27;20417;-62
2023/07/13 06:04:53;;;;;;;4.30;1.90;;;18.90;65.60;;;;;;5116454;27;20051;-62
2023/07/13 06:07:20;;;;;;;3.55;1.80;;;18.90;65.70;;;;;;5106723;27;20055;-66
2023/07/13 06:09:59;;;;;;;5.20;1.90;;;19.00;65.60;;;;;;5116765;27;20055;-65
2023/07/13 06:12:26;;;;;;;6.68;1.88;;;18.90;65.50;;;;;;5116963;27;20509;-66
2023/07/13 06:14:53;;;;;;;5.60;1.80;;;19.00;65.50;;;;;;5116388;27;20043;-68
2023/07/13 06:17:19;;;;;;;5.47;2.00;;;19.00;65.40;;;;;;5114088;27;20040;-65
2023/07/13 06:19:47;;;;;;;4.68;1.70;;;19.10;65.40;;;;;;5113290;27;20046;-65
2023/07/13 06:22:13;;;;;;;4.22;1.92;;;19.10;65.10;;;;;;5114545;27;20054;-61
2023/07/13 06:24:40;;;;;;;5.95;2.70;;;19.20;64.50;;;;;;5112993;27;20048;-61
2023/07/13 06:27:09;;;;;;;5.43;2.88;;;19.10;63.90;;;;;;5111654;27;20043;-76
2023/07/13 06:29:35;;;;;;;6.43;2.67;;;19.20;63.40;;;;;;5115652;27;20054;-75
2023/07/13 06:32:02;;;;;;;5.85;2.35;;;19.20;63.10;;;;;;5113480;27;20043;-71
2023/07/13 06:34:29;;;;;;;5.32;2.28;;;19.30;62.90;;;;;;5116321;27;20059;-72
2023/07/13 06:36:56;;;;;;;6.88;2.30;;;19.30;62.10;;;;;;5116622;28;20055;-72
2023/07/13 06:39:23;;;;;;;4.60;1.88;;;19.40;61.70;;;;;;5116473;27;20733;-71
2023/07/13 06:41:50;;;;;;;3.60;1.40;;;19.50;60.90;;;;;;5110620;27;20047;-63
2023/07/13 06:44:20;;;;;;;4.78;1.73;;;19.60;60.60;;;;;;5111828;28;20116;-62
2023/07/13 06:46:46;;;;;;;7.72;2.08;;;19.80;59.60;;;;;;5112853;28;20043;-61
2023/07/13 06:49:13;;;;;;;6.75;2.22;;;19.90;59.20;;;;;;5108373;28;20050;-61
2023/07/13 06:51:40;;;;;;;5.78;2.70;;;20.10;58.40;;;;;;5112634;28;20051;-62
2023/07/13 06:54:07;;;;;;;8.05;3.13;;;20.20;57.70;;;;;;5113714;28;20047;-63
2023/07/13 06:56:34;;;;;;;6.20;2.65;;;20.30;57.30;;;;;;5113777;28;20055;-61
2023/07/13 06:59:01;;;;;;;6.15;2.78;;;20.60;56.70;;;;;;5112490;28;20069;-61
2023/07/13 07:01:29;;;;;;;5.15;2.53;;;20.70;56.00;;;;;;5113492;28;20047;-75
2023/07/13 07:03:56;;;;;;;4.32;1.98;;;21.00;55.40;;;;;;5116998;27;20126;-74
2023/07/13 07:06:24;;;;;;;3.35;1.17;;;21.10;54.90;;;;;;5109606;28;20067;-66
2023/07/13 07:08:51;;;;;;;5.03;1.48;;;21.20;54.50;;;;;;5113290;28;20118;-66
2023/07/13 07:11:22;;;;;;;3.75;1.13;;;21.40;53.40;;;;;;5114405;27;20050;-70
2023/07/13 07:13:49;;;;;;;4.80;1.35;;;21.60;52.40;;;;;;5118291;27;20055;-71
2023/07/13 07:16:16;;;;;;;3.22;1.00;;;21.70;51.90;;;;;;5117589;27;20508;-72
2023/07/13 07:18:44;;;;;;;2.85;0.93;;;21.80;51.30;;;;;;5116077;27;20507;-72
2023/07/13 07:21:12;;;;;;;3.75;0.98;;;21.90;51.30;;;;;;5119256;27;20567;-68
2023/07/13 07:23:39;;;;;;;3.85;1.17;;;22.10;51.00;;;;;;5117597;27;20052;-69
2023/07/13 07:26:08;;;;;;;3.72;1.20;;;22.20;50.80;;;;;;5123614;27;20121;-72
2023/07/13 07:28:35;;;;;;;3.53;1.20;;;22.20;50.50;;;;;;5120445;27;20051;-72
2023/07/13 07:31:02;;;;;;;3.50;1.27;;;22.30;49.80;;;;;;5118776;27;20042;-75
2023/07/13 07:33:29;;;;;;;3.70;0.90;;;22.30;49.80;;;;;;5119711;27;20043;-77
2023/07/13 07:35:57;;;;;;;5.35;0.88;;;22.40;49.40;;;;;;5116752;27;20058;-75
2023/07/13 07:38:24;;;;;;;3.15;1.00;;;22.60;48.70;;;;;;5117964;27;20048;-75
2023/07/13 07:40:51;;;;;;;3.63;1.00;;;22.60;48.50;;;;;;5111059;27;20265;-76
2023/07/13 07:43:18;;;;;;;3.80;1.05;;;22.70;48.40;;;;;;5116302;27;20031;-74
2023/07/13 07:45:46;;;;;;;2.47;1.00;;;22.90;48.20;;;;;;5114212;27;20039;-72
2023/07/13 07:48:13;;;;;;;3.63;1.27;;;23.00;48.00;;;;;;5114493;27;20040;-71
2023/07/13 07:50:40;;;;;;;3.00;1.00;;;23.20;47.60;;;;;;5115965;27;20040;-61
2023/07/13 07:53:10;;;;;;;2.85;0.90;;;23.40;47.00;;;;;;5117688;27;20043;-62
2023/07/13 07:55:37;;;;;;;1.73;0.60;;;23.40;46.50;;;;;;5119448;27;20071;-68
2023/07/13 07:58:04;;;;;;;2.05;0.80;;;23.40;46.10;;;;;;5112546;27;20040;-67
2023/07/13 08:00:31;;;;;;;2.58;0.77;;;23.60;46.40;;;;;;5115081;27;20032;-67
2023/07/13 08:02:59;;;;;;;4.57;1.48;;;23.60;45.80;;;;;;5115098;27;20040;-67
2023/07/13 08:05:26;;;;;;;2.15;0.90;;;23.80;45.70;;;;;;5115245;27;20458;-69
2023/07/13 08:07:53;;;;;;;4.25;1.25;;;24.10;45.00;;;;;;5117469;27;20047;-68
2023/07/13 08:10:21;;;;;;;2.38;0.80;;;24.10;44.80;;;;;;5119374;27;20051;-68
2023/07/13 08:12:47;;;;;;;3.47;1.15;;;24.10;44.50;;;;;;5118070;27;20052;-68
2023/07/13 08:15:16;;;;;;;1.77;0.77;;;24.20;44.60;;;;;;5116525;27;20058;-67
2023/07/13 08:17:43;;;;;;;2.83;0.90;;;24.20;44.30;;;;;;5112942;27;20064;-69
2023/07/13 08:20:11;;;;;;;2.40;0.88;;;24.30;44.00;;;;;;5119072;27;20490;-69
2023/07/13 08:22:38;;;;;;;2.88;1.00;;;24.50;44.20;;;;;;5115376;27;20075;-73
2023/07/13 08:25:05;;;;;;;3.95;1.38;;;24.50;44.00;;;;;;5115964;27;20051;-71
2023/07/13 08:27:34;;;;;;;2.15;0.95;;;24.60;43.70;;;;;;5115868;27;20043;-60
2023/07/13 08:30:01;;;;;;;2.83;1.10;;;24.70;44.10;;;;;;5115591;27;20105;-60
2023/07/13 08:32:27;;;;;;;3.25;1.00;;;24.70;44.00;;;;;;5117806;27;20468;-66
2023/07/13 08:34:54;;;;;;;1.95;0.88;;;24.90;43.50;;;;;;5118067;27;20063;-66
2023/07/13 08:37:21;;;;;;;2.88;1.10;;;25.10;43.30;;;;;;5114805;27;20047;-75
2023/07/13 08:39:49;;;;;;;2.80;1.02;;;25.10;43.20;;;;;;5113692;27;20048;-75
2023/07/13 08:42:27;;;;;;;2.03;0.70;;;24.90;42.50;;;;;;5116604;27;20067;-71
2023/07/13 08:45:05;;;;;;;2.42;0.63;;;24.90;42.20;;;;;;5115080;27;20055;-71
2023/07/13 08:47:34;;;;;;;2.95;1.00;;;25.10;42.00;;;;;;5110713;27;20512;-66
2023/07/13 08:50:01;;;;;;;1.58;0.75;;;25.20;41.70;;;;;;5110461;27;20056;-65
2023/07/13 08:52:34;;;;;;;2.33;0.80;;;25.30;41.60;;;;;;5109956;27;20055;-64
2023/07/13 08:55:10;;;;;;;2.65;0.90;;;25.60;41.60;;;;;;5097352;27;20047;-64
2023/07/13 08:57:37;;;;;;;2.33;0.80;;;25.80;41.10;;;;;;5115598;27;20059;-66
2023/07/13 09:00:11;;;;;;;3.45;1.13;;;25.90;41.20;;;;;;5114169;27;20058;-66
2023/07/13 09:02:45;;;;;;;2.85;0.90;;;26.00;40.70;;;;;;5115074;27;20135;-66
2023/07/13 09:05:16;;;;;;;1.95;0.77;;;26.10;40.40;;;;;;5114944;27;20052;-64
2023/07/13 09:08:03;;;;;;;1.38;0.75;;;26.30;40.30;;;;;;5117239;27;20510;-72
2023/07/13 09:10:33;;;;;;;1.10;0.80;;;26.30;40.00;;;;;;5116991;27;20134;-73
2023/07/13 09:13:15;;;;;;;3.30;0.80;;;26.40;39.50;;;;;;5116004;27;20043;-73
2023/07/13 09:15:46;;;;;;;3.28;0.90;;;26.40;39.20;;;;;;5116271;27;20079;-72
2023/07/13 09:18:26;;;;;;;3.20;1.00;;;26.50;39.20;;;;;;5110835;27;20081;-72
2023/07/13 09:20:58;;;;;;;4.22;1.10;;;26.40;39.10;;;;;;5111283;27;20054;-67
2023/07/13 09:23:28;;;;;;;2.17;0.93;;;26.40;39.00;;;;;;5109787;27;20043;-66
2023/07/13 09:26:01;;;;;;;2.42;0.75;;;26.40;38.80;;;;;;5113545;27;20060;-66
2023/07/13 09:28:30;;;;;;;2.38;0.82;;;26.60;38.60;;;;;;5116434;27;20482;-65
2023/07/13 09:31:05;;;;;;;3.03;0.77;;;26.60;38.40;;;;;;5114931;27;20039;-69
2023/07/13 09:33:32;;;;;;;1.42;0.50;;;26.60;38.50;;;;;;5098324;27;20043;-70
2023/07/13 09:35:59;;;;;;;2.05;0.63;;;26.50;38.20;;;;;;5115329;27;20409;-73
2023/07/13 09:38:29;;;;;;;2.22;0.80;;;26.60;38.30;;;;;;5111103;27;20047;-73
2023/07/13 09:41:18;;;;;;;2.33;0.60;;;26.60;38.20;;;;;;5115118;27;20956;-69
2023/07/13 09:44:09;;;;;;;1.83;0.80;;;26.70;37.80;;;;;;5116695;27;20047;-70
2023/07/13 09:46:45;;;;;;;3.08;1.42;;;26.80;37.60;;;;;;5115456;27;20051;-64
2023/07/13 09:49:17;;;;;;;4.50;2.22;;;26.90;37.30;;;;;;5112077;27;20082;-65
2023/07/13 09:51:46;;;;;;;5.57;3.20;;;27.10;37.30;;;;;;5115570;27;20051;-71
2023/07/13 09:54:21;;;;;;;3.03;1.67;;;27.20;37.00;;;;;;5115170;27;20040;-73
2023/07/13 09:56:48;;;;;;;3.22;1.45;;;27.10;36.30;;;;;;5113160;27;20077;-69
2023/07/13 09:59:22;;;;;;;2.72;0.90;;;27.10;36.20;;;;;;5111576;27;20516;-69
2023/07/13 10:01:51;;;;;;;2.58;0.80;;;27.10;36.00;;;;;;5115284;27;20040;-73
2023/07/13 10:04:20;;;;;;;5.93;2.88;;;27.10;36.00;;;;;;5109775;27;20059;-74
2023/07/13 10:06:47;;;;;;;5.03;3.10;;;27.10;36.20;;;;;;5114496;27;20491;-68
2023/07/13 10:09:17;;;;;;;4.22;2.50;;;27.00;36.20;;;;;;5113450;27;20461;-69
2023/07/13 10:11:45;;;;;;;2.90;1.48;;;27.00;36.20;;;;;;5094089;28;20466;-71
2023/07/13 10:14:15;;;;;;;2.85;1.48;;;26.90;36.30;;;;;;5116316;27;20075;-70
2023/07/13 10:16:45;;;;;;;2.60;1.20;;;26.90;36.20;;;;;;5114900;27;20071;-71
2023/07/13 10:19:20;;;;;;;4.38;1.27;;;26.90;36.60;;;;;;5114814;27;20058;-70
2023/07/13 10:21:54;;;;;;;1.80;0.80;;;27.20;35.90;;;;;;5111812;27;20060;-61
2023/07/13 10:24:23;;;;;;;2.70;1.10;;;27.50;35.80;;;;;;5110442;27;20505;-60
2023/07/13 10:26:56;;;;;;;2.90;1.30;;;27.60;35.80;;;;;;5112994;27;20056;-66
2023/07/13 10:29:26;;;;;;;2.95;1.52;;;27.70;35.50;;;;;;5113274;27;20134;-66
2023/07/13 10:31:53;;;;;;;2.47;1.30;;;28.00;35.40;;;;;;5116356;27;20051;-72
2023/07/13 10:34:23;;;;;;;3.15;1.30;;;28.00;35.40;;;;;;5114380;27;20047;-74
2023/07/13 10:36:50;;;;;;;4.15;1.20;;;27.80;35.50;;;;;;5116150;27;20044;-72
2023/07/13 10:39:19;;;;;;;4.00;1.40;;;27.50;35.40;;;;;;5115700;27;20052;-74
2023/07/13 10:41:50;;;;;;;3.17;1.23;;;27.30;35.70;;;;;;5112820;28;20406;-68
2023/07/13 10:44:25;;;;;;;1.65;0.80;;;27.20;36.00;;;;;;5109558;27;20113;-68
2023/07/13 10:46:54;;;;;;;3.10;1.10;;;27.50;35.80;;;;;;5113200;28;20052;-61
2023/07/13 10:49:23;;;;;;;2.63;0.95;;;27.60;35.90;;;;;;5110869;28;20054;-60
2023/07/13 10:51:51;;;;;;;3.15;1.42;;;27.70;35.50;;;;;;5112102;27;20082;-71
2023/07/13 10:54:22;;;;;;;2.70;1.30;;;27.50;35.40;;;;;;5113529;28;20050;-71
2023/07/13 10:57:07;;;;;;;2.75;1.52;;;27.40;35.60;;;;;;5115302;28;20488;-70
2023/07/13 10:59:34;;;;;;;3.38;1.85;;;27.40;36.00;;;;;;5111844;28;20374;-70
2023/07/13 11:02:11;;;;;;;6.25;3.10;;;27.50;36.30;;;;;;5111270;28;20036;-75
2023/07/13 11:04:45;;;;;;;4.80;2.78;;;27.70;36.10;;;;;;5111478;28;20509;-73
2023/07/13 11:07:21;;;;;;;5.03;3.17;;;27.90;36.30;;;;;;5113645;28;20047;-62
2023/07/13 11:09:51;;;;;;;5.40;2.40;;;28.10;36.00;;;;;;5114370;28;20082;-61
2023/07/13 11:12:47;;;;;;;3.35;1.50;;;28.10;34.90;;;;;;5113425;28;20043;-65
2023/07/13 11:15:14;;;;;;;4.05;1.08;;;28.10;34.80;;;;;;5114945;27;20039;-66
2023/07/13 11:17:52;;;;;;;3.72;1.80;;;28.10;34.40;;;;;;5118082;28;20048;-69
2023/07/13 11:20:39;;;;;;;4.63;2.35;;;28.10;34.30;;;;;;5111061;28;20114;-68
2023/07/13 11:23:32;;;;;;;4.63;2.60;;;28.10;34.60;;;;;;5110165;28;20046;-70
2023/07/13 11:26:00;;;;;;;5.43;2.63;;;28.10;34.70;;;;;;5109413;28;20402;-68
2023/07/13 11:28:31;;;;;;;7.60;4.95;;;28.20;34.90;;;;;;5116923;28;20051;-69
2023/07/13 11:31:15;;;;;;;7.28;5.10;;;28.30;34.70;;;;;;5112016;28;20043;-65
2023/07/13 11:33:59;;;;;;;8.05;3.58;;;28.20;34.30;;;;;;5115075;28;20047;-65
2023/07/13 11:36:39;;;;;;;4.50;2.28;;;28.30;34.30;;;;;;5114992;28;20055;-68
2023/07/13 11:39:19;;;;;;;3.25;1.40;;;28.20;34.20;;;;;;5110727;28;20512;-69
2023/07/13 11:41:52;;;;;;;3.65;1.48;;;27.90;34.50;;;;;;5106224;28;20035;-68
2023/07/13 11:44:22;;;;;;;2.53;1.23;;;27.70;34.60;;;;;;5115117;28;20050;-68
2023/07/13 11:46:51;;;;;;;2.92;0.90;;;27.50;35.10;;;;;;5113048;28;20044;-67
2023/07/13 11:49:20;;;;;;;2.90;1.02;;;27.40;34.90;;;;;;5112145;28;20051;-68
2023/07/13 11:51:53;;;;;;;1.45;0.80;;;27.40;35.10;;;;;;5113070;28;20044;-67
2023/07/13 11:54:27;;;;;;;2.42;0.93;;;27.40;35.40;;;;;;5113342;28;20478;-68
2023/07/13 11:56:55;;;;;;;2.17;0.63;;;27.30;34.90;;;;;;5113874;27;20081;-67
2023/07/13 11:59:23;;;;;;;2.80;0.60;;;27.30;34.90;;;;;;5119583;27;20100;-66
2023/07/13 12:01:55;;;;;;;2.70;1.02;;;27.60;34.90;;;;;;5118290;27;20151;-69
2023/07/13 12:04:26;;;;;;;1.77;0.75;;;27.70;34.90;;;;;;5117186;27;20039;-66
2023/07/13 12:07:05;;;;;;;2.03;0.80;;;27.70;34.80;;;;;;5096022;27;20046;-67
2023/07/13 12:09:36;;;;;;;1.52;0.65;;;27.60;34.70;;;;;;5111139;27;20043;-68
2023/07/13 12:12:03;;;;;;;0.90;0.52;;;27.50;34.90;;;;;;5104398;27;20482;-61
2023/07/13 12:14:34;;;;;;;1.25;0.60;;;27.50;35.20;;;;;;5117773;27;20044;-61
2023/07/13 12:17:01;;;;;;;1.58;0.90;;;27.40;34.70;;;;;;5106351;27;20371;-68
2023/07/13 12:19:29;;;;;;;1.88;0.60;;;27.20;34.70;;;;;;5109940;27;20051;-68
2023/07/13 12:21:59;;;;;;;2.25;0.68;;;27.20;35.40;;;;;;5116301;27;20572;-68
2023/07/13 12:24:27;;;;;;;1.60;0.73;;;27.10;35.40;;;;;;5115525;27;20589;-68
2023/07/13 12:26:59;;;;;;;2.63;0.80;;;27.00;35.10;;;;;;5111830;27;20058;-67
2023/07/13 12:29:26;;;;;;;1.15;0.65;;;27.30;35.10;;;;;;5118536;27;20050;-68
2023/07/13 12:31:55;;;;;;;2.08;0.80;;;27.30;35.70;;;;;;5110192;27;20078;-72
2023/07/13 12:34:23;;;;;;;;;;;27.50;35.00;;;;;;5120671;27;20055;-74
2023/07/13 12:36:53;;;;;;;2.63;0.90;;;27.70;35.10;;;;;;5117462;27;19931;-69
2023/07/13 12:39:23;;;;;;;0.80;0.55;;;27.80;34.90;;;;;;5115287;27;20051;-70
2023/07/13 12:41:51;;;;;;;2.55;1.17;;;28.10;35.00;;;;;;5115694;27;20044;-69
2023/07/13 12:44:25;;;;;;;3.25;1.55;;;28.40;34.80;;;;;;5119721;27;20047;-70
2023/07/13 12:46:59;;;;;;;4.03;1.20;;;28.60;34.20;;;;;;5115466;27;20127;-72
2023/07/13 12:49:30;;;;;;;2.45;1.05;;;28.60;34.50;;;;;;5117486;27;20044;-74
2023/07/13 12:51:59;;;;;;;3.05;1.20;;;28.30;34.20;;;;;;5117261;27;20048;-75
2023/07/13 12:54:29;;;;;;;2.17;1.10;;;28.00;34.00;;;;;;5118843;27;20047;-77
2023/07/13 12:56:58;;;;;;;2.63;1.30;;;27.70;34.00;;;;;;5117121;27;20040;-69
2023/07/13 12:59:30;;;;;;;1.92;1.00;;;27.50;34.00;;;;;;5115580;27;20051;-70
2023/07/13 13:01:57;;;;;;;2.03;1.00;;;27.40;33.80;;;;;;5118161;27;20064;-68
2023/07/13 13:04:24;;;;;;;3.22;1.00;;;27.30;34.00;;;;;;5110086;27;20047;-68
2023/07/13 13:07:03;;;;;;;6.90;1.30;;;27.30;34.10;;;;;;5116432;27;20598;-64
2023/07/13 13:09:31;;;;;;;2.03;0.90;;;27.30;34.10;;;;;;5114944;27;20047;-60